Conestee, South Carolina
Current Conditions -  °F | °C
As of 10:55 PM on Saturday 20 Dec 2014 (Local Time) from KGYH Reporting Station
Overcast Overcast  
Wind Chill: 39°   Ceiling: 900
Heat Index: 39°   Visibility: 7mi
Dew Point: 39°   Wind: 3mph
Humidity: 100%   Direction: 40°NE
Pressure: 30.24"   Gusts: NA
Location:  34.77°N, 82.35°W
Report Text: KGYH 210355Z AUTO 04003KT 7SM OVC009 04/04 A3024 RMK AO2
Loading
Personal Weather Stations






























Interactive Weather Map New forecast layout! Learn more

10-Day Weather Forecast

Advertisements
Track Severe Weather on mobile